Accueil
METAR-TAF:

METAR-TAF

Aéroports :

Basseterre, Saint-Christophe-et-Niévès

latitude: 17-18N, longitude: 062-41W, altitude: 48 m

Observation

Le bulletin a été fait il y a 1 heure et 1 minutes, à 14:00 UTC
Vent 13 kt de est
Température 30°C
Humidité 59%
Pression 1016 hPa
Visibilité 10 km ou plus
Quelques nuages à une hauteur de 2300 ft

METAR: TKPK 011400Z 09013KT 9999 FEW023 30/21 Q1016

Heure: 11:01 (15:01 UTC)

Prévision

Le bulletin a été fait il y a 3 heures et 26 minutes, à 11:35 UTC
Prévision valable du 01 à 12 UTC au 02 à 12 UTC
Vent 9 kt de est/nord-est
Visibilité: 10 km
Nuages épars à une hauteur de 2000 ft

TAF: TKPK 011135Z 0112/0212 06009KT P6SM SCT020 AMD NOT SKED 0202/0211

Observations et prévisions météorologiques de plus de 4000 aéroports (messages METAR et TAF).

Les stations disponibles sont représentées par des disques jaunes et rouges sur la carte.

Passer la souris dessus pour voir le nom de la station.

Cliquer dessus pour voir les observations et prévisions météorologiques.

Pour changer de carte: cliquez sur les boutons verts avec une croix noire pour zoomer, sur le bouton vert avec un tiret pour effectuer un zoom arrière, ou sur les flèches vertes pour les cartes adjacentes.


METAR-TAF: